Time;durP1;ratioP1;P1;durP2;ratioP2;P2;SDS_P1;SDS_P2;PMS_P1;PMS_P2;Temp;Humidity;BMP_temperature;BMP_pressure;BME280_temperature;BME280_humidity;BME280_pressure;Samples;Min_cycle;Max_cycle;Signal;HPM_P1;HPM_P2
2023/01/29 00:01:33;;;;;;;12.70;7.70;;;5.10;43.30;;;;;;5017450;28;20486;-86
2023/01/29 00:04:00;;;;;;;7.10;4.33;;;5.30;43.60;;;;;;5004314;28;20467;-86
2023/01/29 00:06:29;;;;;;;15.07;6.70;;;5.50;43.90;;;;;;5021559;28;20458;-87
2023/01/29 00:08:56;;;;;;;8.37;6.17;;;5.60;43.20;;;;;;4976407;28;20481;-86
2023/01/29 00:11:24;;;;;;;13.80;7.80;;;5.60;43.70;;;;;;4988402;28;21034;-88
2023/01/29 00:13:51;;;;;;;9.87;6.03;;;5.60;43.70;;;;;;5004980;28;20973;-87
2023/01/29 00:16:19;;;;;;;11.80;4.30;;;5.70;44.30;;;;;;4980498;28;20481;-86
2023/01/29 00:18:46;;;;;;;5.87;3.70;;;5.80;43.70;;;;;;4992342;28;20474;-86
2023/01/29 00:21:16;;;;;;;5.40;3.70;;;5.80;43.30;;;;;;4991223;28;21007;-85
2023/01/29 00:23:45;;;;;;;5.53;4.30;;;5.40;42.20;;;;;;5005418;28;20551;-86
2023/01/29 00:26:12;;;;;;;5.33;3.33;;;5.50;43.40;;;;;;4975621;28;20453;-87
2023/01/29 00:28:44;;;;;;;5.10;3.57;;;5.70;43.60;;;;;;4989044;28;20715;-87
2023/01/29 00:31:12;;;;;;;6.00;4.30;;;5.80;43.20;;;;;;4977890;28;20520;-87
2023/01/29 00:33:39;;;;;;;43.10;16.67;;;5.50;43.00;;;;;;5019750;28;20565;-86
2023/01/29 00:36:10;;;;;;;49.90;17.20;;;5.60;44.30;;;;;;4974749;28;20454;-88
2023/01/29 00:38:38;;;;;;;31.73;12.90;;;5.70;44.70;;;;;;5003667;28;20478;-87
2023/01/29 00:46:36;;;;;;;7.50;4.93;;;5.70;43.30;;;;;;4987931;28;20457;-84
2023/01/29 00:49:04;;;;;;;7.90;3.97;;;5.80;43.70;;;;;;5002004;28;20486;-87
2023/01/29 00:51:31;;;;;;;6.07;3.90;;;5.80;43.50;;;;;;5005398;28;20482;-85
2023/01/29 00:54:01;;;;;;;8.47;4.10;;;5.50;43.00;;;;;;4988720;28;20466;-87
2023/01/29 00:56:30;;;;;;;4.67;3.67;;;5.60;43.70;;;;;;4989882;28;20645;-88
2023/01/29 00:58:57;;;;;;;5.53;3.60;;;5.70;43.10;;;;;;4970925;28;20805;-87
2023/01/29 01:04:06;;;;;;;5.77;3.90;;;5.70;42.60;;;;;;4987839;28;20946;-87
2023/01/29 01:06:33;;;;;;;5.63;3.30;;;5.80;43.00;;;;;;5006516;28;21110;-86
2023/01/29 01:11:45;;;;;;;6.70;3.60;;;5.90;43.20;;;;;;4991239;28;20955;-86
2023/01/29 01:14:12;;;;;;;8.50;3.80;;;5.50;42.50;;;;;;5004901;28;20466;-86
2023/01/29 01:16:41;;;;;;;7.33;3.83;;;5.50;42.70;;;;;;4988460;28;21064;-87
2023/01/29 01:19:09;;;;;;;7.13;4.00;;;5.70;43.30;;;;;;4989228;28;20454;-86
2023/01/29 01:21:36;;;;;;;6.20;3.97;;;5.70;43.00;;;;;;5002107;28;20553;-87
2023/01/29 01:24:04;;;;;;;5.47;3.90;;;5.70;42.40;;;;;;4988896;28;20497;-86
2023/01/29 01:26:31;;;;;;;4.73;3.63;;;5.80;42.50;;;;;;5007435;28;20474;-86
2023/01/29 01:28:59;;;;;;;4.07;3.43;;;5.80;42.60;;;;;;4987158;28;21138;-86
2023/01/29 01:31:26;;;;;;;7.13;3.90;;;5.50;42.40;;;;;;5003460;28;20449;-86
2023/01/29 01:33:54;;;;;;;5.07;3.80;;;5.40;42.90;;;;;;5002409;28;20479;-86
2023/01/29 01:36:22;;;;;;;4.70;3.40;;;5.40;43.00;;;;;;5017982;28;20446;-87
2023/01/29 01:38:49;;;;;;;6.30;4.17;;;5.20;42.70;;;;;;5001972;28;20446;-86
2023/01/29 01:41:18;;;;;;;6.67;3.90;;;5.00;43.70;;;;;;5003559;28;20467;-86
2023/01/29 01:43:52;;;;;;;4.80;3.60;;;5.30;44.00;;;;;;4975905;28;20486;-86
2023/01/29 01:46:21;;;;;;;5.97;3.60;;;5.50;43.80;;;;;;4987203;28;20793;-85
2023/01/29 01:48:53;;;;;;;5.07;3.60;;;5.60;43.20;;;;;;4988738;28;20447;-86
2023/01/29 01:51:21;;;;;;;5.90;4.13;;;5.70;43.10;;;;;;4991006;28;20443;-86
2023/01/29 01:53:55;;;;;;;4.03;3.20;;;5.70;43.00;;;;;;5018130;28;21162;-86
2023/01/29 01:56:27;;;;;;;8.67;4.80;;;5.70;43.60;;;;;;5002644;28;20804;-87
2023/01/29 01:58:57;;;;;;;7.43;4.20;;;5.80;42.60;;;;;;4971470;28;21138;-87
2023/01/29 02:01:27;;;;;;;5.70;3.43;;;5.90;43.00;;;;;;4974143;28;20971;-85
2023/01/29 02:09:34;;;;;;;17.50;7.10;;;6.00;42.40;;;;;;4993204;28;20445;-87
2023/01/29 02:12:03;;;;;;;18.13;7.80;;;6.00;42.90;;;;;;4968532;28;21107;-86
2023/01/29 02:14:30;;;;;;;16.40;5.70;;;6.00;42.70;;;;;;5005796;28;20473;-85
2023/01/29 02:17:00;;;;;;;11.63;5.27;;;5.90;42.70;;;;;;4992898;28;20449;-87
2023/01/29 02:19:39;;;;;;;5.23;3.63;;;5.90;42.80;;;;;;4990610;28;20454;-85
2023/01/29 02:22:41;;;;;;;5.17;4.33;;;5.80;42.70;;;;;;5007179;28;20556;-86
2023/01/29 02:25:38;;;;;;;5.10;3.47;;;5.90;43.60;;;;;;4994022;28;20964;-86
2023/01/29 02:28:22;;;;;;;5.93;4.07;;;6.00;43.10;;;;;;4987029;28;20442;-85
2023/01/29 02:30:59;;;;;;;6.30;3.60;;;5.70;42.80;;;;;;4975413;28;20458;-86
2023/01/29 02:33:35;;;;;;;5.77;4.40;;;5.60;42.90;;;;;;4990292;28;20481;-87
2023/01/29 02:36:14;;;;;;;6.60;4.17;;;5.70;43.80;;;;;;5007419;28;20963;-86
2023/01/29 02:38:47;;;;;;;6.00;4.40;;;5.80;44.10;;;;;;4991075;28;20549;-84
2023/01/29 02:41:19;;;;;;;5.67;4.20;;;5.90;43.30;;;;;;4991805;28;20462;-86
2023/01/29 02:43:52;;;;;;;10.90;4.30;;;5.90;42.90;;;;;;4989840;28;20489;-87
2023/01/29 02:46:28;;;;;;;8.00;3.43;;;6.00;43.10;;;;;;4989768;28;20975;-85
2023/01/29 02:48:59;;;;;;;8.00;4.80;;;5.90;42.90;;;;;;5006306;28;20443;-86
2023/01/29 02:51:35;;;;;;;5.93;3.90;;;5.80;42.60;;;;;;4976370;28;20454;-86
2023/01/29 02:54:07;;;;;;;4.67;3.80;;;5.60;42.40;;;;;;5005646;28;20470;-86
2023/01/29 02:56:38;;;;;;;6.33;4.00;;;5.50;42.20;;;;;;4989805;28;20529;-86
2023/01/29 02:59:10;;;;;;;7.43;4.40;;;5.70;43.40;;;;;;5004888;28;20446;-87
2023/01/29 03:01:44;;;;;;;7.50;4.00;;;5.70;43.70;;;;;;5008729;28;20454;-87
2023/01/29 03:04:19;;;;;;;8.07;4.10;;;5.70;43.80;;;;;;5005918;28;20465;-86
2023/01/29 03:06:53;;;;;;;5.53;3.60;;;5.70;44.00;;;;;;5006768;28;20443;-86
2023/01/29 03:09:26;;;;;;;8.23;4.07;;;5.80;43.70;;;;;;4972861;28;20857;-86
2023/01/29 03:11:57;;;;;;;7.00;3.77;;;5.70;43.50;;;;;;4988885;28;20449;-86
2023/01/29 03:15:10;;;;;;;6.83;4.50;;;5.70;44.40;;;;;;5004418;28;20509;-85
2023/01/29 03:17:33;;;;;;;8.47;4.57;;;5.70;44.50;;;;;;5004449;28;20466;-86
2023/01/29 03:20:02;;;;;;;7.43;4.20;;;5.70;44.00;;;;;;5004785;28;20453;-86
2023/01/29 03:22:30;;;;;;;5.43;3.50;;;5.70;43.80;;;;;;4989597;28;21224;-86
2023/01/29 03:33:45;;;;;;;5.60;4.50;;;5.30;44.20;;;;;;4972912;28;20560;-86
2023/01/29 03:36:17;;;;;;;5.40;3.87;;;5.20;44.60;;;;;;4990660;28;20450;-86
2023/01/29 03:38:45;;;;;;;6.70;4.40;;;5.20;45.00;;;;;;5022885;28;20450;-85
2023/01/29 03:41:22;;;;;;;6.23;4.00;;;5.30;44.70;;;;;;5006707;28;20447;-87
2023/01/29 03:43:54;;;;;;;6.03;4.00;;;5.40;44.90;;;;;;4993472;28;21002;-86
2023/01/29 03:46:30;;;;;;;5.17;3.77;;;5.40;44.70;;;;;;4971389;28;20835;-87
2023/01/29 03:49:01;;;;;;;7.13;4.17;;;5.50;45.00;;;;;;4993498;28;20948;-87
2023/01/29 03:51:35;;;;;;;4.77;4.10;;;5.50;44.40;;;;;;4993674;28;20496;-86
2023/01/29 03:54:10;;;;;;;10.50;4.00;;;5.60;44.40;;;;;;4972581;28;20580;-86
2023/01/29 03:56:47;;;;;;;7.40;4.80;;;5.40;44.10;;;;;;5009464;28;20563;-85
2023/01/29 03:59:22;;;;;;;6.87;3.63;;;5.50;44.50;;;;;;4989100;28;20508;-86
2023/01/29 04:02:20;;;;;;;8.27;4.87;;;5.40;43.70;;;;;;4964753;28;20550;-87
2023/01/29 04:04:51;;;;;;;5.47;3.90;;;5.50;44.20;;;;;;5006527;28;20454;-86
2023/01/29 04:07:26;;;;;;;5.40;3.90;;;5.50;43.80;;;;;;5020552;28;20609;-84
2023/01/29 04:10:06;;;;;;;10.97;4.07;;;5.40;43.30;;;;;;5004800;28;21241;-86
2023/01/29 04:12:41;;;;;;;9.07;5.27;;;5.60;44.20;;;;;;4987499;28;20455;-85
2023/01/29 04:15:13;;;;;;;5.47;4.90;;;5.60;43.90;;;;;;4987576;28;20451;-86
2023/01/29 04:17:44;;;;;;;8.90;5.27;;;5.50;44.40;;;;;;5020392;28;20447;-86
2023/01/29 04:20:18;;;;;;;7.20;5.13;;;5.60;44.30;;;;;;5004181;28;20811;-85
2023/01/29 04:22:46;;;;;;;6.00;4.60;;;5.60;44.90;;;;;;4986251;28;20482;-86
2023/01/29 04:25:15;;;;;;;6.23;4.37;;;5.40;44.60;;;;;;4985577;28;20451;-86
2023/01/29 04:27:52;;;;;;;9.60;4.40;;;5.30;44.70;;;;;;4990335;28;20554;-86
2023/01/29 04:30:28;;;;;;;8.60;4.37;;;5.30;44.20;;;;;;5004358;28;20450;-84
2023/01/29 04:33:06;;;;;;;6.60;4.00;;;5.30;44.60;;;;;;4988502;28;20966;-86
2023/01/29 04:35:45;;;;;;;9.17;4.83;;;5.40;44.90;;;;;;4991110;28;20453;-86
2023/01/29 04:38:21;;;;;;;8.00;4.83;;;5.40;45.00;;;;;;4971151;28;20537;-86
2023/01/29 04:40:55;;;;;;;4.77;4.00;;;5.50;44.30;;;;;;4986923;28;20442;-86
2023/01/29 04:43:26;;;;;;;6.93;4.23;;;5.50;44.30;;;;;;4992012;28;20471;-84
2023/01/29 04:46:09;;;;;;;4.23;3.70;;;5.40;44.30;;;;;;5003197;28;20956;-86
2023/01/29 04:48:53;;;;;;;5.00;4.30;;;5.50;44.70;;;;;;4986844;28;20799;-86
2023/01/29 04:51:25;;;;;;;6.37;4.40;;;5.50;45.00;;;;;;5003221;28;20454;-86
2023/01/29 04:54:01;;;;;;;3.53;3.23;;;5.30;44.50;;;;;;4987634;28;20485;-86
2023/01/29 04:56:33;;;;;;;8.30;4.93;;;5.30;45.00;;;;;;4992132;28;20450;-86
2023/01/29 04:59:05;;;;;;;4.97;3.60;;;5.20;45.20;;;;;;4986183;28;20466;-86
2023/01/29 05:01:33;;;;;;;6.97;3.77;;;5.20;44.60;;;;;;4986909;28;20454;-86
2023/01/29 05:04:05;;;;;;;9.43;6.03;;;5.20;44.50;;;;;;5020020;28;20482;-85
2023/01/29 05:06:32;;;;;;;8.00;6.20;;;5.10;44.90;;;;;;5002552;28;20458;-86
2023/01/29 05:09:01;;;;;;;7.73;5.63;;;5.00;45.00;;;;;;5020379;28;20692;-87
2023/01/29 05:11:32;;;;;;;7.90;5.30;;;4.90;44.90;;;;;;4972762;28;20529;-86
2023/01/29 05:13:59;;;;;;;7.03;4.00;;;5.00;45.70;;;;;;5004077;28;20474;-86
2023/01/29 05:16:28;;;;;;;5.20;3.93;;;4.90;45.50;;;;;;5002723;28;20986;-86
2023/01/29 05:18:55;;;;;;;6.47;3.97;;;4.90;45.30;;;;;;4991214;28;20455;-86
2023/01/29 05:21:24;;;;;;;5.30;3.77;;;4.90;45.20;;;;;;5002487;28;20455;-86
2023/01/29 05:24:08;;;;;;;7.87;4.67;;;5.00;44.70;;;;;;5003286;28;20482;-87
2023/01/29 05:29:20;;;;;;;6.97;4.23;;;5.00;44.80;;;;;;4971572;28;20441;-84
2023/01/29 05:31:47;;;;;;;5.13;4.10;;;5.00;45.20;;;;;;5021283;28;20446;-86
2023/01/29 05:34:14;;;;;;;6.10;3.80;;;5.00;45.40;;;;;;4972153;28;20474;-86
2023/01/29 05:36:42;;;;;;;5.50;4.37;;;5.10;45.60;;;;;;4987848;28;20483;-87
2023/01/29 05:39:09;;;;;;;6.70;5.20;;;5.00;45.30;;;;;;5004748;28;20458;-87
2023/01/29 05:41:36;;;;;;;7.70;4.50;;;5.10;45.60;;;;;;4971418;28;20453;-87
2023/01/29 05:44:03;;;;;;;5.30;4.30;;;5.10;45.20;;;;;;5004742;28;21007;-87
2023/01/29 05:46:31;;;;;;;4.93;3.77;;;5.00;45.00;;;;;;4988262;28;20458;-86
2023/01/29 05:48:58;;;;;;;7.40;4.67;;;5.00;45.30;;;;;;4988635;28;20510;-86
2023/01/29 05:51:25;;;;;;;8.87;5.13;;;5.00;45.80;;;;;;4987167;28;20446;-87
2023/01/29 05:53:53;;;;;;;4.67;3.63;;;5.00;46.50;;;;;;5002875;28;20455;-85
2023/01/29 05:56:20;;;;;;;5.97;4.47;;;5.10;46.40;;;;;;5002258;28;20473;-84
2023/01/29 05:58:47;;;;;;;6.50;3.70;;;5.10;45.80;;;;;;4988129;28;20542;-87
2023/01/29 06:01:16;;;;;;;6.20;3.87;;;5.10;46.10;;;;;;4987325;28;20455;-86
2023/01/29 06:03:44;;;;;;;5.13;3.50;;;5.10;46.40;;;;;;4985731;28;20577;-87
2023/01/29 06:06:11;;;;;;;5.47;3.83;;;5.10;46.80;;;;;;4976577;28;20581;-85
2023/01/29 06:08:39;;;;;;;6.73;3.93;;;5.10;45.30;;;;;;4987115;28;20447;-88
2023/01/29 06:11:10;;;;;;;4.50;3.50;;;5.20;44.80;;;;;;4970598;28;20976;-86
2023/01/29 06:13:37;;;;;;;6.77;4.00;;;5.20;45.20;;;;;;5001735;28;21045;-87
2023/01/29 06:16:06;;;;;;;6.00;3.60;;;5.20;45.30;;;;;;5002428;28;20454;-86
2023/01/29 06:18:33;;;;;;;6.30;4.27;;;5.20;44.90;;;;;;4986757;28;20504;-86
2023/01/29 06:21:02;;;;;;;6.83;3.93;;;5.20;45.00;;;;;;5003092;28;20540;-86
2023/01/29 06:23:30;;;;;;;7.60;4.50;;;5.30;44.80;;;;;;5003744;28;20510;-87
2023/01/29 06:26:00;;;;;;;10.17;3.73;;;5.40;45.10;;;;;;4970761;28;20445;-86
2023/01/29 06:28:29;;;;;;;6.10;4.43;;;5.40;45.10;;;;;;4968939;28;20443;-87
2023/01/29 06:30:58;;;;;;;6.27;4.53;;;5.40;45.30;;;;;;5000885;28;20554;-86
2023/01/29 06:33:25;;;;;;;9.33;4.23;;;5.30;44.90;;;;;;5002358;28;20466;-87
2023/01/29 06:35:57;;;;;;;13.30;6.20;;;5.20;44.50;;;;;;4986126;28;20443;-87
2023/01/29 06:38:24;;;;;;;22.40;8.63;;;5.10;44.80;;;;;;5002129;28;20807;-85
2023/01/29 06:40:51;;;;;;;16.73;7.13;;;5.00;45.00;;;;;;4989944;28;20546;-85
2023/01/29 06:43:19;;;;;;;6.97;4.50;;;4.90;44.80;;;;;;5019842;28;20570;-86
2023/01/29 06:45:52;;;;;;;7.53;5.00;;;4.80;44.60;;;;;;5001266;28;20440;-85
2023/01/29 06:48:19;;;;;;;8.37;5.77;;;4.70;44.90;;;;;;4990920;28;20457;-85
2023/01/29 06:50:48;;;;;;;10.03;4.13;;;4.80;45.20;;;;;;4989811;28;20541;-86
2023/01/29 06:53:15;;;;;;;7.77;4.00;;;4.80;45.20;;;;;;4990290;28;21070;-87
2023/01/29 06:55:42;;;;;;;8.70;4.63;;;4.80;45.10;;;;;;5006073;28;20450;-87
2023/01/29 06:58:11;;;;;;;6.90;4.73;;;4.90;45.10;;;;;;5022956;28;20460;-86
2023/01/29 07:00:39;;;;;;;6.17;3.90;;;4.90;45.30;;;;;;4991556;28;20462;-86
2023/01/29 07:03:09;;;;;;;7.90;4.37;;;4.90;45.30;;;;;;4977357;28;20477;-87
2023/01/29 07:05:36;;;;;;;11.93;6.30;;;5.10;44.80;;;;;;5004460;28;20462;-86
2023/01/29 07:08:03;;;;;;;8.90;5.30;;;5.10;44.40;;;;;;4983273;28;20464;-87
2023/01/29 07:10:31;;;;;;;4.90;4.30;;;5.10;44.70;;;;;;4986187;28;20901;-85
2023/01/29 07:12:59;;;;;;;8.87;5.83;;;5.10;44.80;;;;;;4973178;28;20470;-87
2023/01/29 07:15:26;;;;;;;8.37;4.60;;;5.10;44.70;;;;;;4987862;28;20878;-85
2023/01/29 07:17:57;;;;;;;7.60;3.60;;;5.00;45.00;;;;;;4987790;28;20450;-84
2023/01/29 07:20:26;;;;;;;6.63;4.50;;;4.90;45.00;;;;;;4985876;28;20450;-85
2023/01/29 07:22:54;;;;;;;7.63;3.80;;;4.90;45.00;;;;;;5018856;28;20476;-85
2023/01/29 07:25:21;;;;;;;5.47;4.30;;;4.90;44.70;;;;;;5019870;28;20447;-85
2023/01/29 07:27:48;;;;;;;6.43;4.20;;;4.80;44.90;;;;;;5003831;28;20458;-86
2023/01/29 07:30:16;;;;;;;7.10;4.30;;;4.80;45.10;;;;;;5018354;28;20459;-86
2023/01/29 07:32:43;;;;;;;6.50;5.80;;;4.90;45.00;;;;;;5004271;28;21258;-85
2023/01/29 07:35:11;;;;;;;7.07;4.90;;;4.90;45.40;;;;;;5002022;28;20451;-87
2023/01/29 07:37:39;;;;;;;7.80;5.03;;;4.80;45.20;;;;;;5002486;28;20545;-86
2023/01/29 07:40:10;;;;;;;4.97;4.47;;;4.60;45.50;;;;;;5002605;28;20813;-86
2023/01/29 07:42:41;;;;;;;11.67;7.90;;;4.60;45.50;;;;;;4985018;28;20939;-85
2023/01/29 07:45:09;;;;;;;15.40;8.10;;;4.60;45.70;;;;;;5003182;28;20821;-86
2023/01/29 07:47:39;;;;;;;15.83;8.53;;;4.60;45.20;;;;;;4989677;28;20446;-86
2023/01/29 07:50:06;;;;;;;21.47;9.03;;;4.50;45.30;;;;;;4990345;28;20442;-85
2023/01/29 07:52:34;;;;;;;9.10;5.40;;;4.50;45.60;;;;;;5019432;28;20955;-86
2023/01/29 07:55:02;;;;;;;9.70;6.40;;;4.50;45.50;;;;;;4986947;28;20458;-86
2023/01/29 07:57:30;;;;;;;7.60;5.30;;;4.60;44.70;;;;;;4986046;28;21159;-86
2023/01/29 07:59:56;;;;;;;5.60;4.00;;;4.60;45.10;;;;;;4968634;28;20459;-86
2023/01/29 08:02:23;;;;;;;7.53;4.60;;;4.70;45.00;;;;;;5001834;28;20434;-85
2023/01/29 08:04:50;;;;;;;5.87;4.50;;;4.50;45.00;;;;;;4986954;28;20482;-86
2023/01/29 08:07:17;;;;;;;5.40;3.90;;;4.40;45.40;;;;;;4970726;28;20470;-85
2023/01/29 08:09:44;;;;;;;8.67;5.00;;;4.60;45.50;;;;;;4969175;28;20463;-87
2023/01/29 08:12:12;;;;;;;7.67;4.37;;;4.60;44.90;;;;;;4987313;28;20458;-86
2023/01/29 08:14:39;;;;;;;6.67;4.60;;;4.60;44.90;;;;;;4999782;28;20477;-86
2023/01/29 08:17:06;;;;;;;5.23;3.80;;;4.70;45.40;;;;;;4988115;28;20534;-85
2023/01/29 08:19:33;;;;;;;4.70;4.13;;;4.90;44.90;;;;;;5018061;28;20446;-86
2023/01/29 08:22:00;;;;;;;6.03;4.20;;;4.70;45.10;;;;;;4990119;28;20438;-87
2023/01/29 08:24:27;;;;;;;8.70;4.03;;;4.70;45.00;;;;;;4972550;28;20480;-86
2023/01/29 08:26:54;;;;;;;7.07;3.87;;;4.60;44.90;;;;;;4987098;28;20524;-85
2023/01/29 08:29:22;;;;;;;5.07;3.70;;;4.50;45.40;;;;;;5003149;28;20940;-85
2023/01/29 08:31:49;;;;;;;9.30;4.90;;;4.40;44.90;;;;;;4986122;28;20438;-86
2023/01/29 08:34:16;;;;;;;14.70;7.70;;;4.50;44.80;;;;;;4987486;28;20463;-87
2023/01/29 08:36:43;;;;;;;5.80;3.30;;;4.20;45.30;;;;;;5003909;28;20466;-86
2023/01/29 08:39:10;;;;;;;5.77;4.40;;;4.30;45.90;;;;;;5001139;28;20446;-87
2023/01/29 08:41:37;;;;;;;120.07;34.07;;;4.50;45.50;;;;;;4984968;28;20458;-86
2023/01/29 08:44:05;;;;;;;8.77;6.00;;;4.70;45.20;;;;;;4986972;28;20540;-87
2023/01/29 08:46:33;;;;;;;6.10;4.40;;;4.60;44.70;;;;;;5002774;28;20454;-85
2023/01/29 08:49:00;;;;;;;6.23;4.47;;;4.50;44.40;;;;;;4982258;28;20468;-86
2023/01/29 08:51:27;;;;;;;5.00;3.97;;;4.60;44.80;;;;;;4984547;28;20458;-87
2023/01/29 08:53:54;;;;;;;15.23;7.50;;;4.80;44.80;;;;;;4989320;28;20478;-87
2023/01/29 08:56:21;;;;;;;15.73;8.03;;;4.90;44.70;;;;;;5002659;28;20455;-86
2023/01/29 08:58:48;;;;;;;8.07;5.30;;;5.10;44.60;;;;;;4970551;28;20974;-86
2023/01/29 09:01:15;;;;;;;4.67;3.57;;;5.20;44.30;;;;;;4983912;28;21150;-86
2023/01/29 09:03:44;;;;;;;5.83;4.20;;;5.30;43.70;;;;;;4972113;28;21075;-86
2023/01/29 09:06:12;;;;;;;5.60;3.97;;;5.40;44.70;;;;;;5016221;28;20454;-86
2023/01/29 09:08:39;;;;;;;5.30;3.87;;;5.20;42.90;;;;;;5013836;28;20462;-86
2023/01/29 09:11:07;;;;;;;7.10;3.83;;;4.60;44.40;;;;;;4987880;28;20450;-87
2023/01/29 09:13:34;;;;;;;6.20;4.37;;;4.50;44.50;;;;;;4983060;28;20446;-86
2023/01/29 09:16:02;;;;;;;4.17;3.57;;;4.80;44.70;;;;;;4987959;28;20454;-86
2023/01/29 09:18:30;;;;;;;6.27;4.73;;;5.00;44.40;;;;;;4983789;28;20451;-86
2023/01/29 09:20:58;;;;;;;6.43;4.13;;;5.00;44.50;;;;;;4983014;28;20562;-86
2023/01/29 09:23:25;;;;;;;6.70;5.60;;;5.10;44.90;;;;;;4967510;28;21424;-86
2023/01/29 09:25:52;;;;;;;7.60;4.93;;;5.20;44.40;;;;;;5002576;28;20451;-85
2023/01/29 09:28:19;;;;;;;8.63;4.27;;;5.30;44.00;;;;;;5017376;28;20458;-86
2023/01/29 09:30:46;;;;;;;6.33;4.83;;;5.50;43.90;;;;;;5001378;28;20825;-86
2023/01/29 09:33:13;;;;;;;5.67;3.70;;;5.10;43.90;;;;;;4985682;28;20465;-86
2023/01/29 09:35:41;;;;;;;7.00;4.40;;;5.00;44.30;;;;;;4986429;28;20460;-86
2023/01/29 09:38:10;;;;;;;9.80;6.90;;;4.90;43.90;;;;;;4985482;28;20478;-87
2023/01/29 09:40:46;;;;;;;8.23;5.03;;;5.10;44.40;;;;;;4965574;28;20447;-86
2023/01/29 09:43:17;;;;;;;6.70;5.33;;;5.00;45.00;;;;;;4981869;28;20470;-86
2023/01/29 09:45:53;;;;;;;5.90;4.80;;;5.10;44.40;;;;;;5001090;28;22248;-87
2023/01/29 09:48:23;;;;;;;7.80;4.20;;;5.20;44.20;;;;;;4984727;28;20550;-86
2023/01/29 09:50:53;;;;;;;6.70;6.00;;;5.00;44.10;;;;;;4988629;28;20447;-87
2023/01/29 09:53:29;;;;;;;9.33;5.23;;;4.90;44.60;;;;;;4980706;28;20550;-86
2023/01/29 09:55:59;;;;;;;7.80;4.60;;;5.00;44.40;;;;;;4985552;28;20450;-86
2023/01/29 09:58:31;;;;;;;5.90;4.40;;;5.00;44.70;;;;;;4999160;28;20469;-86
2023/01/29 10:01:08;;;;;;;6.30;4.30;;;4.80;45.20;;;;;;4999208;28;20451;-85
2023/01/29 10:04:11;;;;;;;8.50;5.30;;;4.60;45.50;;;;;;5001107;28;20990;-85
2023/01/29 10:06:55;;;;;;;6.43;4.70;;;4.80;46.10;;;;;;4987240;28;20454;-86
2023/01/29 10:09:49;;;;;;;7.03;5.13;;;5.00;45.90;;;;;;5000238;28;20458;-86
2023/01/29 10:12:36;;;;;;;6.57;4.40;;;5.10;45.90;;;;;;4969028;28;20455;-86
2023/01/29 10:15:10;;;;;;;11.17;6.13;;;5.10;45.70;;;;;;5016205;28;21242;-86
2023/01/29 10:17:54;;;;;;;14.50;7.37;;;5.10;44.80;;;;;;5000532;28;20990;-86
2023/01/29 10:20:43;;;;;;;14.73;9.03;;;4.90;44.90;;;;;;5003594;28;20467;-86
2023/01/29 10:23:21;;;;;;;16.10;7.10;;;4.90;45.70;;;;;;5018816;28;20473;-86
2023/01/29 10:25:52;;;;;;;13.30;7.77;;;5.10;45.30;;;;;;5004408;28;20434;-86
2023/01/29 10:28:23;;;;;;;10.17;6.23;;;5.00;45.40;;;;;;4975869;28;20458;-86
2023/01/29 10:30:54;;;;;;;7.87;5.50;;;4.90;45.50;;;;;;5019835;28;20446;-85
2023/01/29 10:33:28;;;;;;;10.57;5.50;;;4.90;45.20;;;;;;4988541;28;20478;-86
2023/01/29 10:35:59;;;;;;;9.63;5.43;;;5.20;45.00;;;;;;5005277;28;21517;-86
2023/01/29 10:38:37;;;;;;;6.03;4.73;;;5.30;44.00;;;;;;5001241;28;20463;-86
2023/01/29 10:41:19;;;;;;;8.13;5.33;;;5.40;44.50;;;;;;5018574;28;20442;-85
2023/01/29 10:43:58;;;;;;;7.70;5.27;;;5.30;44.10;;;;;;4986364;28;20475;-86
2023/01/29 10:46:37;;;;;;;10.67;6.50;;;5.20;44.20;;;;;;4986974;28;20453;-86
2023/01/29 10:49:18;;;;;;;7.63;4.60;;;5.20;44.40;;;;;;4986204;28;20488;-85
2023/01/29 10:51:59;;;;;;;8.80;6.40;;;5.30;44.00;;;;;;5003227;28;21155;-86
2023/01/29 10:54:47;;;;;;;6.97;4.80;;;5.40;44.30;;;;;;4968639;28;20548;-86
2023/01/29 10:57:26;;;;;;;12.60;6.40;;;5.80;43.80;;;;;;5005258;28;20462;-88
2023/01/29 11:00:06;;;;;;;10.30;5.20;;;5.90;43.30;;;;;;4972640;28;20446;-86
2023/01/29 11:02:33;;;;;;;5.63;4.57;;;5.80;43.30;;;;;;5004493;28;20454;-88
2023/01/29 11:05:00;;;;;;;8.73;5.20;;;6.00;42.90;;;;;;4970030;28;20999;-86
2023/01/29 11:07:30;;;;;;;6.93;5.40;;;6.10;42.60;;;;;;4986401;28;20454;-86
2023/01/29 11:10:05;;;;;;;8.17;4.73;;;6.20;42.70;;;;;;5020385;28;20482;-87
2023/01/29 11:12:35;;;;;;;6.83;4.70;;;6.20;41.50;;;;;;5002953;28;20453;-86
2023/01/29 11:15:07;;;;;;;9.87;5.00;;;5.90;42.50;;;;;;5020220;28;20454;-86
2023/01/29 11:17:34;;;;;;;7.20;5.10;;;6.00;42.90;;;;;;4971072;28;20497;-86
2023/01/29 11:20:01;;;;;;;5.63;3.80;;;5.70;42.70;;;;;;4988825;28;20485;-86
2023/01/29 11:22:29;;;;;;;7.93;4.47;;;5.70;43.10;;;;;;5002348;28;20455;-86
2023/01/29 11:25:15;;;;;;;7.17;4.00;;;5.80;42.90;;;;;;5019980;28;20479;-87
2023/01/29 11:27:46;;;;;;;8.40;4.10;;;5.70;43.00;;;;;;4985176;28;20453;-85
2023/01/29 11:30:23;;;;;;;8.73;5.77;;;5.60;43.10;;;;;;5020312;28;20458;-86
2023/01/29 11:32:56;;;;;;;10.80;5.30;;;5.60;43.30;;;;;;4990355;28;21000;-85
2023/01/29 11:35:25;;;;;;;8.77;6.00;;;5.70;43.20;;;;;;4969806;28;20447;-87
2023/01/29 11:37:52;;;;;;;7.80;4.90;;;6.00;42.70;;;;;;5002716;28;20450;-86
2023/01/29 11:40:35;;;;;;;8.40;6.33;;;6.00;42.80;;;;;;5001592;28;20455;-87
2023/01/29 11:43:22;;;;;;;9.83;6.57;;;6.30;42.80;;;;;;5019094;28;20458;-86
2023/01/29 11:45:53;;;;;;;8.13;4.30;;;6.50;42.10;;;;;;5002367;28;20845;-88
2023/01/29 11:48:21;;;;;;;8.53;6.03;;;6.70;42.10;;;;;;4970870;28;20446;-86
2023/01/29 11:50:53;;;;;;;9.80;5.80;;;6.70;42.20;;;;;;4984596;28;20455;-86
2023/01/29 11:53:34;;;;;;;32.10;14.00;;;6.80;41.90;;;;;;5004682;28;20474;-89
2023/01/29 11:56:05;;;;;;;8.70;5.40;;;7.00;41.90;;;;;;4985983;28;20458;-86
2023/01/29 11:58:35;;;;;;;12.70;6.50;;;6.70;41.30;;;;;;4984312;28;20814;-87
2023/01/29 12:01:03;;;;;;;6.70;5.30;;;6.30;42.40;;;;;;4985573;28;20457;-88
2023/01/29 12:03:36;;;;;;;6.37;5.17;;;6.10;42.40;;;;;;5001748;28;21054;-87
2023/01/29 12:06:07;;;;;;;6.50;4.90;;;6.10;42.90;;;;;;4985700;28;20470;-85
2023/01/29 12:08:37;;;;;;;6.73;4.70;;;6.20;42.80;;;;;;4999095;28;20744;-86
2023/01/29 12:11:09;;;;;;;6.63;4.90;;;6.20;42.60;;;;;;5001535;28;20443;-86
2023/01/29 12:13:39;;;;;;;5.07;4.47;;;6.00;42.90;;;;;;4984203;28;20518;-87
2023/01/29 12:16:16;;;;;;;12.33;7.70;;;5.80;43.40;;;;;;4988086;28;20457;-87
2023/01/29 12:18:48;;;;;;;6.80;4.70;;;5.80;43.90;;;;;;4968440;28;20978;-86
2023/01/29 12:21:21;;;;;;;9.90;5.87;;;6.00;44.00;;;;;;5001387;28;20446;-85
2023/01/29 12:23:55;;;;;;;5.33;3.80;;;6.30;43.60;;;;;;4968072;28;22542;-86
2023/01/29 12:26:29;;;;;;;5.57;4.70;;;6.50;43.00;;;;;;4970165;28;20450;-86
2023/01/29 12:29:16;;;;;;;7.47;4.40;;;6.40;42.40;;;;;;5001467;28;20442;-86
2023/01/29 12:31:49;;;;;;;6.47;4.17;;;6.60;42.90;;;;;;5001344;28;20531;-86
2023/01/29 12:34:23;;;;;;;6.50;4.17;;;6.50;42.30;;;;;;4989940;28;20458;-86
2023/01/29 12:36:55;;;;;;;6.80;4.60;;;6.60;42.70;;;;;;5018994;28;20562;-87
2023/01/29 12:39:23;;;;;;;5.73;4.50;;;6.80;42.80;;;;;;4985822;28;20459;-86
2023/01/29 12:41:54;;;;;;;4.83;3.83;;;6.80;41.50;;;;;;4984160;28;20486;-87
2023/01/29 12:44:30;;;;;;;5.83;4.07;;;6.70;41.80;;;;;;4984590;28;20864;-86
2023/01/29 12:47:02;;;;;;;7.90;5.57;;;6.80;42.00;;;;;;4970403;28;20473;-86
2023/01/29 12:49:35;;;;;;;3.70;3.40;;;6.90;42.00;;;;;;5001110;28;20508;-86
2023/01/29 12:52:10;;;;;;;5.03;4.50;;;7.00;41.40;;;;;;4986725;28;20824;-87
2023/01/29 12:54:40;;;;;;;10.17;4.00;;;7.10;41.10;;;;;;4967084;28;20489;-87
2023/01/29 12:57:17;;;;;;;20.20;10.47;;;7.00;41.10;;;;;;5000771;28;20980;-86
2023/01/29 12:59:51;;;;;;;14.40;7.60;;;7.00;42.10;;;;;;5015587;28;20974;-87
2023/01/29 13:02:31;;;;;;;5.43;4.30;;;7.40;42.20;;;;;;5000591;28;20454;-86
2023/01/29 13:05:02;;;;;;;7.43;5.40;;;7.40;41.00;;;;;;4992271;28;20477;-85
2023/01/29 13:07:34;;;;;;;6.80;4.43;;;7.40;41.50;;;;;;5000415;28;20485;-86
2023/01/29 13:10:07;;;;;;;12.40;5.77;;;7.30;41.10;;;;;;4972908;28;20443;-87
2023/01/29 13:12:36;;;;;;;10.47;7.00;;;7.50;41.40;;;;;;4967760;28;20512;-87
2023/01/29 13:15:15;;;;;;;5.40;4.40;;;7.50;41.00;;;;;;4985568;28;20461;-87
2023/01/29 13:17:47;;;;;;;8.57;5.27;;;7.60;41.10;;;;;;4983989;28;20455;-86
2023/01/29 13:20:21;;;;;;;9.30;4.47;;;7.60;40.60;;;;;;4999697;28;20964;-87
2023/01/29 13:22:50;;;;;;;5.17;4.47;;;7.50;40.60;;;;;;4985352;28;20520;-86
2023/01/29 13:25:19;;;;;;;6.67;5.43;;;7.50;41.50;;;;;;5001491;28;21108;-85
2023/01/29 13:27:47;;;;;;;4.80;4.30;;;7.70;41.30;;;;;;5001459;28;20466;-87
2023/01/29 13:30:27;;;;;;;4.57;4.17;;;7.50;41.10;;;;;;5002717;28;20496;-86
2023/01/29 13:33:07;;;;;;;5.80;4.73;;;7.40;40.90;;;;;;4972906;28;20552;-85
2023/01/29 13:35:37;;;;;;;7.73;5.27;;;7.30;41.90;;;;;;5019093;28;20512;-86
2023/01/29 13:38:06;;;;;;;8.23;5.13;;;7.10;42.10;;;;;;4975000;28;21489;-85
2023/01/29 13:40:34;;;;;;;9.10;5.70;;;7.10;42.10;;;;;;4984785;28;20443;-85
2023/01/29 13:43:03;;;;;;;4.87;4.30;;;7.20;42.00;;;;;;4985490;28;20996;-87
2023/01/29 13:45:41;;;;;;;5.43;4.90;;;7.40;41.30;;;;;;4985951;28;20469;-87